This is the latest recevied weather packets stored in our database for station/object NE1CU. If no packets are shown the sender has not sent any weather packets the latest 10 day(s).
| Time | Temp. | Humidity | Pressure | Rain* | Wind** | Luminosity | Snow |
|---|---|---|---|---|---|---|---|
| 1777755030 | 16.11° C | 44% | 1009.4 hPa | 0 mm | - | 293 W/m² | - |
| 1777754726 | 16.67° C | 44% | 1009.6 hPa | 0 mm | - | 312 W/m² | - |
| 1777754424 | 16.11° C | 48% | 1009.6 hPa | 0 mm | - | 557 W/m² | - |
| 1777754121 | 16.11° C | 46% | 1009.6 hPa | 0 mm | - | 398 W/m² | - |
| 1777753818 | 15.56° C | 48% | 1009.7 hPa | 0 mm | - | 480 W/m² | - |
| 1777753514 | 15.56° C | 47% | 1009.6 hPa | 0 mm | - | 231 W/m² | - |
| 1777753213 | 16.11° C | 48% | 1009.9 hPa | 0 mm | - | 399 W/m² | - |
| 1777752908 | 15.56° C | 48% | 1009.9 hPa | 0 mm | - | 350 W/m² | - |
| 1777752604 | 15° C | 49% | 1010 hPa | 0 mm | - | 324 W/m² | - |
| 1777752301 | 14.44° C | 52% | 1010.1 hPa | 0 mm | - | 289 W/m² | - |
| 1777751999 | 14.44° C | 52% | 1010.1 hPa | 0 mm | - | 259 W/m² | - |
| 1777751696 | 15° C | 51% | 1010.3 hPa | 0 mm | - | 233 W/m² | - |
| 1777751392 | 15° C | 53% | 1010.2 hPa | 0 mm | - | 211 W/m² | - |
| 1777751089 | 15° C | 51% | 1010.4 hPa | 0 mm | - | 199 W/m² | - |
| 1777750784 | 15° C | 53% | 1010.3 hPa | 0 mm | - | 321 W/m² | - |
| 1777750482 | 15° C | 52% | 1010.4 hPa | 0 mm | - | 360 W/m² | - |
| 1777750178 | 14.44° C | 54% | 1010.6 hPa | 0 mm | - | 423 W/m² | - |
| 1777749875 | 14.44° C | 55% | 1010.7 hPa | 0 mm | - | 239 W/m² | - |
| 1777749571 | 14.44° C | 55% | 1010.7 hPa | 0 mm | - | 357 W/m² | - |
| 1777749269 | 14.44° C | 54% | 1011 hPa | 0 mm | - | 404 W/m² | - |
| 1777748967 | 13.89° C | 57% | 1010.7 hPa | 0 mm | - | 339 W/m² | - |
| 1777748664 | 14.44° C | 56% | 1010.9 hPa | 0 mm | - | 282 W/m² | - |
| 1777748360 | 14.44° C | 57% | 1011.1 hPa | 0 mm | - | 403 W/m² | - |
| 1777748055 | 15° C | 56% | 1011 hPa | 0 mm | - | 374 W/m² | - |
| 1777747753 | 15° C | 54% | 1011.1 hPa | 0 mm | - | 436 W/m² | - |
* Rain latest hour (hover to see other rain measurements)
** Current wind speed in m/s (hover to see current wind gust speed)